Time;durP1;ratioP1;P1;durP2;ratioP2;P2;SDS_P1;SDS_P2;PMS_P1;PMS_P2;Temp;Humidity;BMP_temperature;BMP_pressure;BME280_temperature;BME280_humidity;BME280_pressure;Samples;Min_cycle;Max_cycle;Signal;HPM_P1;HPM_P2
2022/09/18 00:02:10;;;;;;;3.43;2.20;;;11.10;99.90;;;;;;5218799;28;20198;-50
2022/09/18 00:04:41;;;;;;;6.90;2.47;;;11.10;99.90;;;;;;5216358;28;20211;-51
2022/09/18 00:07:11;;;;;;;4.47;1.73;;;11.00;99.90;;;;;;5216948;28;20279;-48
2022/09/18 00:09:43;;;;;;;6.70;1.93;;;11.00;99.90;;;;;;5221604;28;20689;-48
2022/09/18 00:12:13;;;;;;;1.43;1.33;;;10.90;99.90;;;;;;5218580;28;20179;-49
2022/09/18 00:14:44;;;;;;;1.90;1.80;;;10.90;99.90;;;;;;5226429;28;20544;-48
2022/09/18 00:17:15;;;;;;;8.73;2.50;;;10.80;99.90;;;;;;5222963;28;20646;-49
2022/09/18 00:19:45;;;;;;;6.07;2.43;;;10.80;99.90;;;;;;5224736;28;20214;-48
2022/09/18 00:22:16;;;;;;;2.53;1.60;;;10.80;99.90;;;;;;5220758;28;20187;-49
2022/09/18 00:24:46;;;;;;;2.63;2.43;;;10.80;99.90;;;;;;5222789;28;20298;-47
2022/09/18 00:27:17;;;;;;;3.73;2.00;;;10.70;99.90;;;;;;5226277;28;20254;-49
2022/09/18 00:29:47;;;;;;;2.50;2.30;;;10.70;99.90;;;;;;5221143;28;20214;-48
2022/09/18 00:32:18;;;;;;;1.90;1.50;;;10.70;99.90;;;;;;5222676;28;20659;-49
2022/09/18 00:34:48;;;;;;;2.57;2.17;;;10.70;99.90;;;;;;5219360;28;20238;-50
2022/09/18 00:37:19;;;;;;;3.47;1.93;;;10.80;99.90;;;;;;5212067;28;20195;-47
2022/09/18 00:39:49;;;;;;;2.80;2.60;;;10.80;99.90;;;;;;5227474;28;20187;-48
2022/09/18 00:42:20;;;;;;;1.90;0.97;;;10.70;99.90;;;;;;5224802;28;20224;-48
2022/09/18 00:44:51;;;;;;;1.60;1.50;;;10.70;99.90;;;;;;5216419;28;20261;-49
2022/09/18 00:47:28;;;;;;;1.63;1.10;;;10.60;99.90;;;;;;5222148;28;20183;-48
2022/09/18 00:50:08;;;;;;;1.27;1.27;;;10.60;99.90;;;;;;5215745;28;20233;-49
2022/09/18 00:52:50;;;;;;;2.70;1.60;;;10.60;99.90;;;;;;5221231;28;20443;-48
2022/09/18 00:55:27;;;;;;;1.20;1.03;;;10.60;99.90;;;;;;5217965;28;20464;-48
2022/09/18 00:58:00;;;;;;;1.00;0.83;;;10.50;99.90;;;;;;5225450;28;20969;-48
2022/09/18 01:00:31;;;;;;;2.40;1.43;;;10.50;99.90;;;;;;5228016;28;20441;-49
2022/09/18 01:03:02;;;;;;;0.90;0.90;;;10.40;99.90;;;;;;5227568;28;20929;-48
2022/09/18 01:05:41;;;;;;;1.30;1.30;;;10.50;99.90;;;;;;5217115;28;20469;-48
2022/09/18 01:08:21;;;;;;;1.13;1.00;;;10.50;99.90;;;;;;5217251;28;20446;-49
2022/09/18 01:11:29;;;;;;;0.70;0.70;;;10.40;99.90;;;;;;5226448;28;20480;-49
2022/09/18 01:14:05;;;;;;;0.80;0.80;;;10.50;99.90;;;;;;5222967;28;20472;-49
2022/09/18 01:16:49;;;;;;;0.70;0.70;;;10.40;99.90;;;;;;5222039;28;20890;-49
2022/09/18 01:19:22;;;;;;;0.60;0.60;;;10.40;99.90;;;;;;5210569;28;20429;-47
2022/09/18 01:22:35;;;;;;;6.23;5.40;;;10.30;99.90;;;;;;5218966;28;20493;-48
2022/09/18 01:25:43;;;;;;;1.00;0.90;;;10.30;99.90;;;;;;5202293;28;20467;-49
2022/09/18 01:28:26;;;;;;;0.90;0.90;;;10.30;99.90;;;;;;5223339;28;20891;-50
2022/09/18 01:31:01;;;;;;;0.50;0.50;;;10.20;99.90;;;;;;5219951;28;20504;-55
2022/09/18 01:33:47;;;;;;;0.50;0.50;;;10.20;99.90;;;;;;5225497;28;20465;-48
2022/09/18 01:36:23;;;;;;;4.80;0.77;;;10.20;99.90;;;;;;5221048;28;20447;-48
2022/09/18 01:39:04;;;;;;;1.70;0.70;;;10.20;99.90;;;;;;5225222;28;20486;-49
2022/09/18 01:41:38;;;;;;;3.53;0.57;;;10.20;99.90;;;;;;5226495;28;20428;-47
2022/09/18 01:44:14;;;;;;;0.67;0.50;;;10.20;99.90;;;;;;5203989;28;20811;-48
2022/09/18 01:46:45;;;;;;;0.47;0.47;;;10.20;99.90;;;;;;5225550;28;20440;-48
2022/09/18 01:49:22;;;;;;;0.40;0.40;;;10.10;99.90;;;;;;5217169;28;20485;-49
2022/09/18 01:52:19;;;;;;;0.60;0.60;;;10.10;99.90;;;;;;5216920;28;20925;-49
2022/09/18 01:54:51;;;;;;;0.30;0.30;;;10.10;99.90;;;;;;5217222;28;20446;-48
2022/09/18 01:57:28;;;;;;;1.17;0.57;;;10.10;99.90;;;;;;5223647;28;20508;-48
2022/09/18 02:00:10;;;;;;;2.17;0.43;;;10.10;99.90;;;;;;5216150;28;20763;-48
2022/09/18 02:02:44;;;;;;;2.93;0.70;;;10.10;99.90;;;;;;5226113;28;20464;-48
2022/09/18 02:05:21;;;;;;;0.73;0.73;;;10.10;99.90;;;;;;5225472;28;20460;-48
2022/09/18 02:08:09;;;;;;;1.23;0.70;;;10.20;99.90;;;;;;5227018;28;20789;-48
2022/09/18 02:10:53;;;;;;;0.53;0.40;;;10.10;99.90;;;;;;5221071;28;20491;-48
2022/09/18 02:13:31;;;;;;;0.70;0.60;;;10.20;99.90;;;;;;5219374;28;20431;-48
2022/09/18 02:16:08;;;;;;;0.63;0.40;;;10.20;99.90;;;;;;5219048;28;20430;-48
2022/09/18 02:18:44;;;;;;;4.47;0.60;;;10.20;99.90;;;;;;5222986;28;20911;-48
2022/09/18 02:21:19;;;;;;;0.60;0.50;;;10.20;99.90;;;;;;5223706;28;20944;-48
2022/09/18 02:23:52;;;;;;;0.50;0.50;;;10.20;99.90;;;;;;5220336;28;21124;-48
2022/09/18 02:26:23;;;;;;;1.33;0.60;;;10.20;99.90;;;;;;5219373;28;20483;-48
2022/09/18 02:28:55;;;;;;;3.30;0.90;;;10.20;99.90;;;;;;5222500;28;20457;-48
2022/09/18 02:31:25;;;;;;;0.73;0.73;;;10.20;99.90;;;;;;5224889;28;20270;-47
2022/09/18 02:33:56;;;;;;;0.77;0.70;;;10.20;99.90;;;;;;5225138;28;20879;-47
2022/09/18 02:36:43;;;;;;;2.13;0.60;;;10.30;99.90;;;;;;5219448;28;20183;-47
2022/09/18 02:39:41;;;;;;;0.60;0.60;;;10.30;99.90;;;;;;5222699;28;20631;-48
2022/09/18 02:42:38;;;;;;;1.33;1.00;;;10.30;99.90;;;;;;5212382;28;20473;-50
2022/09/18 02:45:40;;;;;;;1.23;1.03;;;10.40;99.90;;;;;;5213847;28;20461;-49
2022/09/18 02:48:37;;;;;;;1.37;1.27;;;10.30;99.90;;;;;;5217085;28;20432;-49
2022/09/18 02:51:21;;;;;;;1.83;1.00;;;10.30;99.90;;;;;;5221611;28;20484;-48
2022/09/18 02:54:06;;;;;;;5.07;1.07;;;10.40;99.90;;;;;;5216667;28;20453;-48
2022/09/18 02:56:58;;;;;;;1.80;1.20;;;10.40;99.90;;;;;;5222707;28;20496;-49
2022/09/18 02:59:34;;;;;;;9.43;1.77;;;10.40;99.90;;;;;;5219554;28;20456;-49
2022/09/18 03:02:06;;;;;;;3.70;1.47;;;10.40;99.90;;;;;;5224157;28;20437;-49
2022/09/18 03:04:39;;;;;;;9.03;2.00;;;10.40;99.90;;;;;;5222773;28;20460;-49
2022/09/18 03:07:13;;;;;;;2.93;1.80;;;10.40;99.90;;;;;;5223289;28;20480;-48
2022/09/18 03:09:44;;;;;;;3.90;1.70;;;10.40;99.90;;;;;;5218382;28;20833;-48
2022/09/18 03:12:15;;;;;;;3.33;1.60;;;10.30;99.90;;;;;;5218665;28;20434;-49
2022/09/18 03:14:45;;;;;;;8.07;1.80;;;10.40;99.90;;;;;;5220108;28;20207;-49
2022/09/18 03:17:16;;;;;;;9.07;2.00;;;10.40;99.90;;;;;;5223267;28;20437;-48
2022/09/18 03:19:47;;;;;;;7.30;1.60;;;10.30;99.90;;;;;;5217863;28;20213;-48
2022/09/18 03:22:17;;;;;;;6.13;2.27;;;10.30;99.90;;;;;;5212564;28;20178;-48
2022/09/18 03:24:48;;;;;;;11.23;1.90;;;10.20;99.90;;;;;;5218754;28;20465;-48
2022/09/18 03:27:19;;;;;;;10.57;1.93;;;10.30;99.90;;;;;;5221194;28;20194;-50
2022/09/18 03:29:49;;;;;;;11.80;2.30;;;10.30;99.90;;;;;;5219411;28;20269;-48
2022/09/18 03:32:20;;;;;;;7.10;1.80;;;10.30;99.90;;;;;;5221194;28;20175;-48
2022/09/18 03:34:50;;;;;;;8.17;2.00;;;10.20;99.90;;;;;;5224541;28;20234;-49
2022/09/18 03:37:21;;;;;;;22.10;3.10;;;10.20;99.90;;;;;;5226346;28;20183;-50
2022/09/18 03:39:51;;;;;;;6.30;2.10;;;10.20;99.90;;;;;;5214943;28;20187;-50
2022/09/18 03:42:22;;;;;;;10.83;2.93;;;10.30;99.90;;;;;;5222303;28;20529;-49
2022/09/18 03:44:52;;;;;;;11.90;1.87;;;10.30;99.90;;;;;;5218240;28;20218;-49
2022/09/18 03:47:25;;;;;;;12.00;2.13;;;10.20;99.90;;;;;;5235316;28;20652;-49
2022/09/18 03:49:55;;;;;;;12.43;1.90;;;10.20;99.90;;;;;;5222081;28;20666;-48
2022/09/18 03:52:26;;;;;;;8.90;2.80;;;10.30;99.90;;;;;;5224133;28;20438;-49
2022/09/18 03:54:56;;;;;;;8.93;2.43;;;10.20;99.90;;;;;;5218178;28;20212;-49
2022/09/18 03:57:27;;;;;;;13.97;2.70;;;10.20;99.90;;;;;;5231715;28;20179;-48
2022/09/18 03:59:57;;;;;;;19.73;3.33;;;10.20;99.90;;;;;;5222140;28;20175;-49
2022/09/18 04:02:28;;;;;;;10.47;2.10;;;10.20;99.90;;;;;;5218540;28;20188;-48
2022/09/18 04:04:59;;;;;;;9.83;2.47;;;10.20;99.90;;;;;;5214130;28;20226;-48
2022/09/18 04:07:29;;;;;;;11.47;3.00;;;10.20;99.90;;;;;;5195768;28;20180;-49
2022/09/18 04:10:00;;;;;;;15.63;3.37;;;10.20;99.90;;;;;;5212566;28;20206;-48
2022/09/18 04:12:30;;;;;;;19.47;3.27;;;10.20;99.90;;;;;;5218746;28;20183;-49
2022/09/18 04:15:01;;;;;;;11.20;2.47;;;10.20;99.90;;;;;;5214055;28;20218;-48
2022/09/18 04:17:31;;;;;;;11.70;2.57;;;10.20;99.90;;;;;;5225725;28;20179;-48
2022/09/18 04:20:03;;;;;;;13.40;3.40;;;10.20;99.90;;;;;;5228369;28;20353;-51
2022/09/18 04:22:34;;;;;;;14.30;3.00;;;10.10;99.90;;;;;;5218000;28;20258;-49
2022/09/18 04:25:05;;;;;;;25.47;2.80;;;10.20;99.90;;;;;;5215548;28;20476;-49
2022/09/18 04:27:36;;;;;;;16.33;2.60;;;10.10;99.90;;;;;;5218520;28;20187;-48
2022/09/18 04:30:07;;;;;;;13.17;3.00;;;10.10;99.90;;;;;;5222979;28;20472;-48
2022/09/18 04:32:38;;;;;;;7.50;2.33;;;10.20;99.90;;;;;;5229105;28;20240;-48
2022/09/18 04:35:09;;;;;;;8.33;2.63;;;10.10;99.90;;;;;;5226732;28;20465;-48
2022/09/18 04:37:42;;;;;;;6.83;2.80;;;10.20;99.90;;;;;;5210254;28;20251;-47
2022/09/18 04:40:12;;;;;;;14.40;3.40;;;10.20;99.90;;;;;;5226704;28;20503;-48
2022/09/18 04:42:43;;;;;;;10.03;2.83;;;10.20;99.90;;;;;;5227696;28;20953;-46
2022/09/18 04:45:13;;;;;;;8.17;3.70;;;10.30;99.90;;;;;;5229193;28;20210;-48
2022/09/18 04:47:46;;;;;;;4.13;2.40;;;10.30;99.90;;;;;;5225826;28;20188;-47
2022/09/18 04:50:16;;;;;;;14.33;2.30;;;10.30;99.90;;;;;;5221791;28;20221;-48
2022/09/18 04:52:47;;;;;;;15.83;3.13;;;10.30;99.90;;;;;;5228462;28;20445;-49
2022/09/18 04:55:18;;;;;;;4.70;2.63;;;10.30;99.90;;;;;;5225073;28;20693;-48
2022/09/18 04:57:49;;;;;;;9.63;2.57;;;10.30;99.90;;;;;;5218522;28;20671;-50
2022/09/18 05:00:19;;;;;;;8.37;3.20;;;10.20;99.90;;;;;;5237799;28;20464;-47
2022/09/18 05:02:50;;;;;;;7.63;2.57;;;10.20;99.90;;;;;;5216774;28;20286;-48
2022/09/18 05:05:21;;;;;;;8.13;2.70;;;10.20;99.90;;;;;;5201266;28;20199;-49
2022/09/18 05:07:51;;;;;;;11.70;2.83;;;10.20;99.90;;;;;;5225682;28;20491;-49
2022/09/18 05:10:22;;;;;;;12.53;2.50;;;10.20;99.90;;;;;;5210234;28;20203;-49
2022/09/18 05:12:53;;;;;;;9.67;2.90;;;10.30;99.90;;;;;;5222802;28;20179;-49
2022/09/18 05:15:24;;;;;;;4.00;1.80;;;10.20;99.90;;;;;;5216859;28;20503;-50
2022/09/18 05:17:59;;;;;;;13.80;2.50;;;10.10;99.90;;;;;;5211348;28;20445;-49
2022/09/18 05:20:32;;;;;;;11.63;2.10;;;10.10;99.90;;;;;;5224967;28;20175;-49
2022/09/18 05:23:03;;;;;;;5.80;2.07;;;10.10;99.90;;;;;;5213787;28;20441;-48
2022/09/18 05:25:33;;;;;;;6.60;2.53;;;10.10;99.90;;;;;;5219636;28;20488;-49
2022/09/18 05:28:04;;;;;;;18.17;2.50;;;10.20;99.90;;;;;;5221835;28;20179;-47
2022/09/18 05:30:35;;;;;;;11.27;2.03;;;10.20;99.90;;;;;;5224428;28;20606;-49
2022/09/18 05:33:06;;;;;;;8.20;1.40;;;10.20;99.90;;;;;;5219267;28;20211;-50
2022/09/18 05:35:38;;;;;;;16.17;2.77;;;10.30;99.90;;;;;;5227151;28;20464;-48
2022/09/18 05:38:10;;;;;;;18.67;2.50;;;10.40;99.90;;;;;;5201796;28;20437;-49
2022/09/18 05:40:41;;;;;;;10.20;1.83;;;10.40;99.90;;;;;;5226861;28;20956;-48
2022/09/18 05:43:11;;;;;;;13.90;2.60;;;10.50;99.90;;;;;;5222505;28;20453;-49
2022/09/18 05:45:42;;;;;;;9.80;2.10;;;10.50;99.90;;;;;;5224486;28;20179;-47
2022/09/18 05:48:13;;;;;;;10.70;2.57;;;10.50;99.90;;;;;;5223071;28;20175;-48
2022/09/18 05:50:44;;;;;;;10.33;1.93;;;10.50;99.90;;;;;;5225441;28;20453;-48
2022/09/18 05:53:19;;;;;;;9.43;2.20;;;10.40;99.90;;;;;;5216696;28;20176;-48
2022/09/18 05:55:50;;;;;;;13.37;2.10;;;10.30;99.90;;;;;;5216849;28;20798;-49
2022/09/18 05:58:21;;;;;;;12.30;2.00;;;10.30;99.90;;;;;;5224785;28;20430;-49
2022/09/18 06:00:56;;;;;;;9.73;1.73;;;10.20;99.90;;;;;;5223874;28;20175;-50
2022/09/18 06:03:27;;;;;;;9.83;2.20;;;10.20;99.90;;;;;;5224581;28;20270;-48
2022/09/18 06:05:57;;;;;;;5.83;1.50;;;10.20;99.90;;;;;;5206015;28;20529;-50
2022/09/18 06:08:28;;;;;;;6.97;1.90;;;10.50;99.90;;;;;;5221926;28;20188;-50
2022/09/18 06:10:59;;;;;;;3.07;2.07;;;10.60;99.90;;;;;;5224319;28;20215;-49
2022/09/18 06:13:30;;;;;;;6.90;2.20;;;12.00;99.90;;;;;;5221550;28;20260;-50
2022/09/18 06:16:01;;;;;;;9.00;2.03;;;14.30;99.90;;;;;;5226554;28;20441;-48
2022/09/18 06:18:32;;;;;;;6.27;1.40;;;15.00;99.90;;;;;;5226601;28;20179;-50
2022/09/18 06:21:02;;;;;;;2.83;1.63;;;14.50;99.90;;;;;;5223756;28;20194;-48
2022/09/18 06:23:33;;;;;;;11.77;2.57;;;15.30;99.90;;;;;;5204422;28;20202;-49
2022/09/18 06:26:05;;;;;;;2.43;1.23;;;16.60;99.90;;;;;;5224425;28;20233;-47
2022/09/18 06:28:36;;;;;;;9.60;1.87;;;17.10;98.90;;;;;;5220119;28;20261;-49
2022/09/18 06:31:06;;;;;;;4.23;1.70;;;18.20;95.10;;;;;;5222345;28;21054;-50
2022/09/18 06:33:37;;;;;;;9.50;2.03;;;18.60;83.30;;;;;;5224737;28;20206;-48
2022/09/18 06:36:13;;;;;;;9.47;1.83;;;18.30;80.90;;;;;;5223847;28;20171;-49
2022/09/18 06:38:43;;;;;;;4.77;1.97;;;18.90;76.00;;;;;;5200568;28;20520;-50
2022/09/18 06:41:14;;;;;;;5.30;2.30;;;19.40;74.10;;;;;;5209802;28;20440;-48
2022/09/18 06:43:49;;;;;;;8.20;1.83;;;19.90;68.70;;;;;;5215037;28;20230;-47
2022/09/18 06:46:19;;;;;;;11.53;2.83;;;20.20;66.30;;;;;;5224272;28;20186;-48
2022/09/18 06:48:50;;;;;;;6.13;2.03;;;19.70;63.80;;;;;;5213652;28;21741;-49
2022/09/18 06:51:20;;;;;;;4.23;1.70;;;20.00;65.90;;;;;;5210927;28;20211;-48
2022/09/18 06:53:51;;;;;;;9.30;2.10;;;20.00;63.10;;;;;;5223429;28;20238;-53
2022/09/18 06:56:21;;;;;;;9.03;2.67;;;19.30;63.80;;;;;;5219585;28;20183;-47
2022/09/18 06:58:52;;;;;;;4.73;1.87;;;19.70;63.70;;;;;;5223531;28;20701;-49
2022/09/18 07:01:23;;;;;;;8.30;2.07;;;19.90;61.30;;;;;;5207513;28;20191;-49
2022/09/18 07:03:53;;;;;;;3.37;1.73;;;20.30;61.80;;;;;;5214822;28;20203;-48
2022/09/18 07:06:25;;;;;;;8.70;1.93;;;20.40;58.40;;;;;;5219808;28;20175;-47
2022/09/18 07:08:56;;;;;;;16.93;1.97;;;19.90;58.70;;;;;;5198677;28;20231;-49
2022/09/18 07:11:27;;;;;;;3.80;1.60;;;19.20;60.80;;;;;;5219253;28;21016;-49
2022/09/18 07:13:57;;;;;;;1.70;1.60;;;18.90;62.90;;;;;;5214565;28;20453;-49
2022/09/18 07:16:28;;;;;;;11.47;2.30;;;19.40;61.60;;;;;;5221238;28;20183;-48
2022/09/18 07:18:58;;;;;;;4.07;1.70;;;20.10;59.50;;;;;;5218536;28;20579;-48
2022/09/18 07:21:29;;;;;;;7.33;2.20;;;20.70;57.30;;;;;;5202354;28;21481;-49
2022/09/18 07:24:00;;;;;;;13.43;2.40;;;21.30;56.50;;;;;;5221756;28;20214;-48
2022/09/18 07:26:31;;;;;;;7.60;2.00;;;21.80;55.30;;;;;;5219153;28;21000;-48
2022/09/18 07:29:02;;;;;;;6.07;1.60;;;21.80;53.70;;;;;;5219536;28;20286;-49
2022/09/18 07:31:34;;;;;;;12.93;2.50;;;20.70;54.70;;;;;;5221317;28;20567;-48
2022/09/18 07:34:07;;;;;;;5.47;2.30;;;20.40;57.10;;;;;;5221866;28;20638;-49
2022/09/18 07:36:37;;;;;;;10.20;1.93;;;21.60;55.00;;;;;;5219389;28;20451;-49
2022/09/18 07:39:08;;;;;;;10.80;2.27;;;21.00;52.40;;;;;;5214371;28;20433;-52
2022/09/18 07:41:38;;;;;;;10.33;2.03;;;21.90;53.80;;;;;;5220621;28;20190;-49
2022/09/18 07:44:09;;;;;;;7.07;1.90;;;22.50;51.00;;;;;;5216022;28;20213;-49
2022/09/18 07:46:39;;;;;;;3.33;1.53;;;23.20;49.50;;;;;;5222369;28;20202;-49
2022/09/18 07:49:11;;;;;;;5.27;1.50;;;23.10;48.10;;;;;;5217998;28;20223;-47
2022/09/18 07:51:41;;;;;;;4.70;2.17;;;22.60;48.80;;;;;;5219341;28;20521;-46
2022/09/18 07:54:12;;;;;;;8.83;1.87;;;21.10;49.90;;;;;;5219908;28;20510;-48
2022/09/18 07:56:42;;;;;;;7.60;2.10;;;20.20;52.80;;;;;;5220834;28;20179;-50
2022/09/18 07:59:13;;;;;;;5.30;1.73;;;19.80;54.00;;;;;;5217597;28;20183;-48
2022/09/18 08:01:43;;;;;;;5.27;2.50;;;19.90;55.00;;;;;;5222989;28;20178;-49
2022/09/18 08:04:14;;;;;;;6.17;1.63;;;20.10;55.10;;;;;;5220777;28;20191;-48
2022/09/18 08:06:45;;;;;;;12.10;1.87;;;18.50;55.60;;;;;;5221121;28;20183;-47
2022/09/18 08:09:16;;;;;;;5.77;1.90;;;17.40;58.90;;;;;;5218787;28;20203;-48
2022/09/18 08:11:47;;;;;;;8.60;1.87;;;17.10;61.60;;;;;;5223064;28;20788;-49
2022/09/18 08:14:17;;;;;;;7.73;2.30;;;16.20;63.50;;;;;;5216347;28;20205;-50
2022/09/18 08:16:48;;;;;;;5.23;1.40;;;15.60;65.90;;;;;;5220417;28;20426;-49
2022/09/18 08:19:19;;;;;;;13.40;2.20;;;15.40;69.10;;;;;;5223612;28;20241;-49
2022/09/18 08:21:50;;;;;;;10.60;2.03;;;15.30;71.60;;;;;;5220457;28;20194;-49
2022/09/18 08:24:20;;;;;;;2.43;1.43;;;15.10;71.90;;;;;;5221542;28;20211;-48
2022/09/18 08:26:52;;;;;;;6.43;2.03;;;15.10;74.40;;;;;;5218994;28;20257;-49
2022/09/18 08:29:23;;;;;;;5.20;1.60;;;14.80;76.00;;;;;;5221405;28;20195;-47
2022/09/18 08:31:53;;;;;;;9.50;1.97;;;14.80;77.50;;;;;;5220916;28;20439;-53
2022/09/18 08:34:24;;;;;;;2.80;1.67;;;14.50;79.40;;;;;;5215653;28;20203;-50
2022/09/18 08:36:54;;;;;;;6.80;1.77;;;14.50;83.00;;;;;;5200884;28;20183;-48
2022/09/18 08:39:25;;;;;;;9.50;1.90;;;14.50;84.20;;;;;;5219189;28;20189;-50
2022/09/18 08:42:20;;;;;;;6.30;2.20;;;14.30;85.70;;;;;;5225850;28;20179;-48
2022/09/18 08:44:59;;;;;;;7.53;2.00;;;14.40;88.40;;;;;;5220666;28;20202;-51
2022/09/18 08:47:42;;;;;;;4.07;1.50;;;14.30;89.80;;;;;;5215436;28;20771;-52
2022/09/18 08:50:26;;;;;;;3.90;1.73;;;14.20;90.50;;;;;;5209458;28;20968;-51
2022/09/18 08:53:15;;;;;;;4.90;1.80;;;14.20;91.50;;;;;;5215040;28;20487;-51
2022/09/18 08:55:48;;;;;;;4.83;1.33;;;14.30;91.40;;;;;;5221099;28;20541;-53
2022/09/18 08:58:29;;;;;;;12.10;2.00;;;14.20;91.70;;;;;;5214487;28;20945;-53
2022/09/18 09:01:15;;;;;;;8.57;1.67;;;14.20;92.40;;;;;;5214283;28;20431;-53
2022/09/18 09:03:51;;;;;;;5.90;1.97;;;14.20;91.90;;;;;;5234877;28;20593;-53
2022/09/18 09:06:49;;;;;;;8.50;1.90;;;14.10;92.10;;;;;;5221720;28;20437;-51
2022/09/18 09:09:36;;;;;;;8.07;2.30;;;14.30;91.90;;;;;;5215167;28;21886;-50
2022/09/18 09:12:25;;;;;;;8.73;1.47;;;14.50;91.70;;;;;;5213543;28;20451;-53
2022/09/18 09:15:40;;;;;;;17.63;2.10;;;14.90;90.60;;;;;;5211952;28;20833;-52
2022/09/18 09:18:15;;;;;;;6.43;1.77;;;15.20;89.20;;;;;;5224406;28;20432;-52
2022/09/18 09:20:54;;;;;;;6.27;1.20;;;15.10;85.70;;;;;;5219520;28;20488;-53
2022/09/18 09:24:00;;;;;;;7.13;1.97;;;15.20;86.40;;;;;;5208589;28;20436;-52
2022/09/18 09:26:31;;;;;;;3.60;1.30;;;15.10;86.90;;;;;;5182458;28;21375;-49
2022/09/18 09:29:19;;;;;;;11.30;1.83;;;15.20;86.40;;;;;;5213817;28;20433;-50
2022/09/18 09:31:53;;;;;;;3.67;1.63;;;15.30;85.30;;;;;;5236254;28;20468;-50
2022/09/18 09:34:42;;;;;;;6.67;1.70;;;15.40;84.90;;;;;;5219013;28;20932;-48
2022/09/18 09:37:22;;;;;;;2.87;1.40;;;15.20;83.50;;;;;;5218096;28;20426;-51
2022/09/18 09:40:03;;;;;;;8.90;1.80;;;15.00;85.30;;;;;;5231298;28;22785;-49
2022/09/18 09:42:44;;;;;;;3.40;1.83;;;15.00;85.70;;;;;;5219993;28;20889;-49
2022/09/18 09:45:29;;;;;;;10.40;3.60;;;15.10;87.20;;;;;;5221068;28;20522;-49
2022/09/18 09:47:59;;;;;;;3.63;2.20;;;15.30;85.10;;;;;;5219380;28;20469;-49
2022/09/18 09:50:51;;;;;;;11.23;1.80;;;15.40;85.00;;;;;;5212649;28;20548;-48
2022/09/18 09:53:24;;;;;;;8.03;2.20;;;15.60;84.70;;;;;;5217216;28;20308;-50
2022/09/18 09:56:20;;;;;;;2.63;1.47;;;15.60;82.40;;;;;;5220411;28;20444;-50
2022/09/18 09:59:35;;;;;;;1.80;1.27;;;15.10;81.80;;;;;;5220940;28;20472;-50
2022/09/18 10:02:33;;;;;;;5.03;1.47;;;15.10;83.80;;;;;;5235757;28;20499;-49
2022/09/18 10:05:22;;;;;;;3.40;1.93;;;14.90;84.00;;;;;;5212664;28;20508;-48
2022/09/18 10:08:02;;;;;;;1.80;1.33;;;14.60;85.80;;;;;;5218824;28;20438;-48
2022/09/18 10:10:40;;;;;;;22.70;1.73;;;14.30;88.30;;;;;;5219328;28;20461;-49
2022/09/18 10:13:17;;;;;;;10.80;1.20;;;14.20;90.20;;;;;;5216926;28;20435;-48
2022/09/18 10:15:51;;;;;;;1.30;1.07;;;14.30;90.60;;;;;;5219386;28;20432;-49
2022/09/18 10:18:28;;;;;;;5.60;1.10;;;14.20;91.20;;;;;;5236645;28;20427;-49
2022/09/18 10:21:06;;;;;;;13.93;3.53;;;14.30;91.70;;;;;;5214835;28;20438;-51
2022/09/18 10:23:39;;;;;;;7.90;3.60;;;14.30;90.80;;;;;;5210836;28;20468;-49
2022/09/18 10:26:24;;;;;;;4.13;2.53;;;14.50;91.40;;;;;;5229876;28;20441;-49
2022/09/18 10:28:55;;;;;;;4.90;1.37;;;14.70;90.40;;;;;;5214831;28;20797;-50
2022/09/18 10:31:50;;;;;;;4.70;1.30;;;15.00;88.40;;;;;;5231179;28;20458;-50
2022/09/18 10:34:35;;;;;;;9.53;2.17;;;15.20;87.80;;;;;;5212190;28;20198;-50
2022/09/18 10:37:27;;;;;;;8.27;1.97;;;15.30;86.90;;;;;;5215678;28;20944;-53
2022/09/18 10:40:00;;;;;;;6.20;2.27;;;15.10;85.80;;;;;;5214166;28;20478;-54
2022/09/18 10:42:35;;;;;;;4.40;1.20;;;14.70;84.70;;;;;;5211192;28;20482;-53
2022/09/18 10:45:21;;;;;;;3.03;1.33;;;14.30;85.10;;;;;;5215372;28;20457;-50
2022/09/18 10:48:22;;;;;;;3.17;1.60;;;14.20;85.00;;;;;;5217569;28;20429;-54
2022/09/18 10:51:01;;;;;;;2.03;1.67;;;14.10;84.60;;;;;;5211908;28;20973;-52
2022/09/18 10:53:33;;;;;;;2.57;1.27;;;14.10;85.10;;;;;;5214719;28;20464;-51
2022/09/18 10:56:15;;;;;;;3.90;1.30;;;14.30;86.90;;;;;;5212680;28;20434;-55
2022/09/18 10:58:46;;;;;;;1.30;1.20;;;14.50;84.60;;;;;;5213053;28;20460;-49
2022/09/18 11:01:17;;;;;;;4.53;1.40;;;14.40;82.30;;;;;;5223915;28;20421;-54
2022/09/18 11:04:00;;;;;;;5.77;1.73;;;14.40;82.10;;;;;;5213407;28;20305;-51
2022/09/18 11:06:34;;;;;;;5.60;2.40;;;14.70;84.30;;;;;;5216155;28;20448;-52
2022/09/18 11:09:09;;;;;;;7.70;1.30;;;15.10;85.30;;;;;;5224159;28;20434;-49
2022/09/18 11:11:43;;;;;;;3.60;1.70;;;15.40;79.30;;;;;;5222930;28;20525;-50
2022/09/18 11:14:23;;;;;;;3.47;2.40;;;15.30;76.60;;;;;;5223779;28;20485;-49
2022/09/18 11:16:57;;;;;;;8.57;2.63;;;15.10;80.00;;;;;;5222017;28;20548;-50
2022/09/18 11:19:31;;;;;;;3.63;1.23;;;15.20;81.20;;;;;;5215756;28;20444;-50
2022/09/18 11:22:05;;;;;;;2.10;1.37;;;15.10;78.80;;;;;;5212992;28;20438;-49
2022/09/18 11:24:37;;;;;;;4.43;1.77;;;14.90;76.40;;;;;;5222030;28;20988;-50
2022/09/18 11:27:21;;;;;;;8.10;2.23;;;14.70;75.90;;;;;;5228748;28;21014;-50
2022/09/18 11:29:56;;;;;;;6.47;4.00;;;14.50;77.90;;;;;;5225838;28;20806;-48
2022/09/18 11:32:30;;;;;;;4.77;3.27;;;14.40;76.90;;;;;;5223392;28;20448;-48
2022/09/18 11:35:03;;;;;;;2.90;1.40;;;14.20;79.90;;;;;;5229672;28;20531;-50
2022/09/18 11:37:35;;;;;;;13.67;3.17;;;14.10;81.40;;;;;;5223290;28;20453;-49
2022/09/18 11:40:23;;;;;;;12.80;4.00;;;14.20;83.10;;;;;;5220977;28;20437;-49
2022/09/18 11:42:54;;;;;;;7.60;2.40;;;14.30;81.20;;;;;;5232656;28;20437;-48
2022/09/18 11:46:00;;;;;;;13.63;3.10;;;14.40;81.10;;;;;;5228664;28;20460;-46
2022/09/18 11:48:56;;;;;;;1.63;1.53;;;14.50;80.70;;;;;;5228128;28;20456;-49
2022/09/18 11:51:50;;;;;;;2.97;1.77;;;14.60;79.30;;;;;;5226472;28;20482;-47
2022/09/18 11:55:10;;;;;;;10.07;4.90;;;14.50;77.80;;;;;;5224228;28;20457;-48
2022/09/18 11:57:47;;;;;;;8.77;4.83;;;14.30;79.10;;;;;;5218750;28;20441;-46
2022/09/18 12:00:20;;;;;;;11.30;4.93;;;14.30;79.60;;;;;;5223566;28;20440;-46
2022/09/18 12:03:05;;;;;;;7.20;3.90;;;14.20;80.10;;;;;;5227103;28;22664;-47
2022/09/18 12:05:51;;;;;;;7.23;4.00;;;14.30;78.80;;;;;;5222094;28;20461;-45
2022/09/18 12:08:30;;;;;;;5.40;3.37;;;14.20;78.10;;;;;;5227045;28;20425;-46
2022/09/18 12:11:13;;;;;;;10.00;1.77;;;14.40;78.70;;;;;;5230240;28;20770;-50
2022/09/18 12:13:57;;;;;;;2.93;1.37;;;14.70;79.50;;;;;;5226343;28;20480;-48
2022/09/18 12:16:49;;;;;;;2.03;0.60;;;14.60;81.90;;;;;;5227378;28;20433;-47
2022/09/18 12:19:38;;;;;;;2.63;0.90;;;14.20;81.10;;;;;;5228443;28;20432;-46
2022/09/18 12:22:34;;;;;;;5.93;1.93;;;13.50;85.40;;;;;;5232624;28;20440;-48
2022/09/18 12:25:11;;;;;;;4.10;2.37;;;13.10;87.00;;;;;;5214259;28;20850;-47
2022/09/18 12:28:08;;;;;;;4.83;1.60;;;12.80;90.40;;;;;;5227435;28;20432;-47
2022/09/18 12:31:14;;;;;;;5.73;4.60;;;12.70;93.00;;;;;;5202728;28;20555;-51
2022/09/18 12:33:56;;;;;;;4.60;3.20;;;12.80;93.30;;;;;;5216130;28;20449;-47
2022/09/18 12:36:58;;;;;;;12.30;3.07;;;12.90;92.80;;;;;;5227077;28;20845;-49
2022/09/18 12:40:13;;;;;;;2.97;0.73;;;13.30;94.00;;;;;;5226214;28;20413;-47
2022/09/18 12:42:49;;;;;;;15.43;1.37;;;13.50;88.20;;;;;;5219007;28;20936;-48
2022/09/18 12:45:47;;;;;;;2.30;0.60;;;13.50;86.40;;;;;;5228867;28;20728;-48
2022/09/18 12:48:59;;;;;;;1.40;0.93;;;13.70;89.60;;;;;;5219684;28;20429;-49
2022/09/18 12:51:43;;;;;;;1.83;1.60;;;13.70;84.60;;;;;;5196656;28;20468;-48
2022/09/18 12:54:42;;;;;;;3.47;1.80;;;13.80;84.40;;;;;;5225709;28;20491;-48
2022/09/18 12:57:26;;;;;;;2.70;1.20;;;13.90;83.10;;;;;;5176194;28;20434;-48
2022/09/18 13:00:03;;;;;;;2.27;1.17;;;14.00;81.80;;;;;;5222689;28;20491;-47
2022/09/18 13:03:03;;;;;;;6.67;2.37;;;14.20;82.40;;;;;;5226091;28;20535;-47
2022/09/18 13:05:47;;;;;;;5.17;2.50;;;14.20;79.60;;;;;;5228177;28;20449;-48
2022/09/18 13:08:29;;;;;;;3.00;2.63;;;14.20;79.60;;;;;;5220065;28;20433;-49
2022/09/18 13:11:12;;;;;;;5.20;2.13;;;14.20;78.10;;;;;;5219991;28;21050;-49
2022/09/18 13:14:03;;;;;;;4.23;2.00;;;14.20;78.00;;;;;;5224795;28;20453;-47
2022/09/18 13:16:40;;;;;;;9.10;3.23;;;14.20;79.30;;;;;;5227687;28;20429;-48
2022/09/18 13:19:32;;;;;;;5.37;3.83;;;14.50;81.10;;;;;;5223198;28;20433;-49
2022/09/18 13:22:14;;;;;;;8.03;3.33;;;14.80;81.70;;;;;;5214779;28;20485;-49
2022/09/18 13:24:48;;;;;;;11.90;6.70;;;14.80;75.90;;;;;;5221302;28;20457;-47
2022/09/18 13:27:23;;;;;;;2.63;1.77;;;14.80;72.70;;;;;;5226084;28;20438;-51
2022/09/18 13:29:58;;;;;;;1.23;1.03;;;14.50;68.70;;;;;;5221749;28;20464;-49
2022/09/18 13:32:32;;;;;;;1.80;1.70;;;14.20;69.70;;;;;;5218532;28;20430;-47
2022/09/18 13:35:11;;;;;;;7.50;3.10;;;14.10;70.20;;;;;;5226731;28;20458;-49
2022/09/18 13:37:42;;;;;;;4.77;3.17;;;14.10;71.00;;;;;;5217994;28;20438;-48